createdAt,value
2023-04-02T00:02:32.157Z,99748.66
2023-04-02T00:06:34.852Z,99749.50
2023-04-02T00:10:47.593Z,99758.03
2023-04-02T00:14:55.296Z,99760.41
2023-04-02T00:19:01.875Z,99768.91
2023-04-02T00:23:03.563Z,99770.53
2023-04-02T00:27:10.412Z,99769.66
2023-04-02T00:31:12.230Z,99776.59
2023-04-02T00:35:25.444Z,99778.28
2023-04-02T00:39:29.877Z,99780.72
2023-04-02T00:43:36.155Z,99779.84
2023-04-02T00:47:39.072Z,99778.13
2023-04-02T00:51:53.175Z,99784.91
2023-04-02T00:55:57.438Z,99790.09
2023-04-02T01:00:15.819Z,99786.63
2023-04-02T01:04:34.161Z,99784.81
2023-04-02T01:08:38.592Z,99790.88
2023-04-02T01:12:55.095Z,99793.50
2023-04-02T01:17:20.528Z,99796.91
2023-04-02T01:21:53.747Z,99804.47
2023-04-02T01:26:24.593Z,99805.31
2023-04-02T01:30:26.648Z,99809.66
2023-04-02T01:34:29.345Z,99809.72
2023-04-02T01:38:38.472Z,99814.13
2023-04-02T01:43:01.958Z,99820.06
2023-04-02T01:47:06.915Z,99809.66
2023-04-02T01:51:25.296Z,99822.47
2023-04-02T01:55:33.190Z,99820.75
2023-04-02T01:59:35.818Z,99821.53
2023-04-02T02:03:42.130Z,99826.53
2023-04-02T02:07:44.770Z,99828.22
2023-04-02T02:11:50.911Z,99833.34
2023-04-02T02:15:52.702Z,99835.03
2023-04-02T02:19:58.771Z,99836.75
2023-04-02T02:24:02.625Z,99839.25
2023-04-02T02:28:25.930Z,99851.19
2023-04-02T02:32:30.911Z,99862.16
2023-04-02T02:36:50.607Z,99863.06
2023-04-02T02:40:58.302Z,99864.66
2023-04-02T02:45:04.970Z,99868.16
2023-04-02T02:49:07.711Z,99865.59
2023-04-02T02:53:25.007Z,99874.03
2023-04-02T02:57:35.243Z,99875.69
2023-04-02T03:01:37.942Z,99880.81
2023-04-02T03:05:40.808Z,99880.81
2023-04-02T03:10:22.868Z,99888.41
2023-04-02T03:14:47.268Z,99892.59
2023-04-02T03:19:00.529Z,99897.72
2023-04-02T03:23:12.419Z,99901.22
2023-04-02T03:27:20.385Z,99904.69
2023-04-02T03:31:26.389Z,99912.31
2023-04-02T03:35:39.374Z,99911.38
2023-04-02T03:39:56.350Z,99907.81
2023-04-02T03:44:07.709Z,99929.13
2023-04-02T03:48:37.274Z,99929.91
2023-04-02T03:52:39.484Z,99931.53
2023-04-02T03:56:47.497Z,99930.59
2023-04-02T04:01:04.195Z,99948.50
2023-04-02T04:05:18.377Z,99944.06
2023-04-02T04:09:24.106Z,99959.44
2023-04-02T04:13:36.772Z,99956.06
2023-04-02T04:17:51.296Z,99962.00
2023-04-02T04:22:14.374Z,99962.88
2023-04-02T04:26:35.026Z,99968.81
2023-04-02T04:30:50.756Z,99975.72
2023-04-02T04:34:58.405Z,99979.25
2023-04-02T04:39:14.580Z,99981.78
2023-04-02T04:43:31.842Z,99984.31
2023-04-02T04:47:40.687Z,99992.97
2023-04-02T04:51:48.473Z,99997.22
2023-04-02T04:55:53.343Z,100004.97
2023-04-02T05:00:06.788Z,100015.13
2023-04-02T05:04:16.642Z,100022.06
2023-04-02T05:08:29.675Z,100025.53
2023-04-02T05:12:51.001Z,100030.75
2023-04-02T05:17:03.599Z,100022.22
2023-04-02T05:21:33.188Z,100038.44
2023-04-02T05:25:38.163Z,100050.38
2023-04-02T05:29:44.061Z,100050.53
2023-04-02T05:33:48.450Z,100061.72
2023-04-02T05:37:51.254Z,100067.75
2023-04-02T05:42:08.260Z,100072.72
2023-04-02T05:46:27.563Z,100079.56
2023-04-02T05:50:37.577Z,100086.53
2023-04-02T05:54:48.598Z,100094.22
2023-04-02T05:59:07.616Z,100096.91
2023-04-02T06:03:33.749Z,100106.38
2023-04-02T06:07:46.483Z,100114.94
2023-04-02T06:11:55.938Z,100113.31
2023-04-02T06:15:57.746Z,100125.47
2023-04-02T06:20:06.700Z,100133.28
2023-04-02T06:24:13.505Z,100135.03
2023-04-02T06:28:19.489Z,100141.97
2023-04-02T06:32:27.224Z,100147.00
2023-04-02T06:36:29.274Z,100155.72
2023-04-02T06:40:59.884Z,100160.97
2023-04-02T06:45:29.748Z,100173.00
2023-04-02T06:50:18.817Z,100172.34
2023-04-02T06:54:21.267Z,100180.19
2023-04-02T06:58:28.383Z,100185.56
2023-04-02T07:02:36.857Z,100190.16
2023-04-02T07:06:40.993Z,100200.69
2023-04-02T07:10:42.874Z,100201.69
2023-04-02T07:14:47.939Z,100202.91
2023-04-02T07:18:50.238Z,100207.69
2023-04-02T07:22:52.637Z,100216.66
2023-04-02T07:26:54.300Z,100225.59
2023-04-02T07:30:56.444Z,100235.63
2023-04-02T07:34:58.004Z,100239.66
2023-04-02T07:38:59.711Z,100247.22
2023-04-02T07:43:01.707Z,100253.75
2023-04-02T07:47:03.564Z,100244.59
2023-04-02T07:51:05.955Z,100249.78
2023-04-02T07:55:09.890Z,100253.22
2023-04-02T07:59:11.785Z,100267.66
2023-04-02T08:03:14.121Z,100280.69
2023-04-02T08:07:15.757Z,100286.63
2023-04-02T08:11:17.584Z,100279.91
2023-04-02T08:15:19.406Z,100284.50
2023-04-02T08:19:21.627Z,100289.94
2023-04-02T08:23:23.636Z,100289.28
2023-04-02T08:27:26.343Z,100296.31
2023-04-02T08:31:28.032Z,100302.38
2023-04-02T08:35:30.397Z,100313.53
2023-04-02T08:39:34.144Z,100318.81
2023-04-02T08:43:38.872Z,100322.59
2023-04-02T08:47:44.235Z,100330.59
2023-04-02T08:51:47.317Z,100341.72
2023-04-02T08:56:05.623Z,100341.88
2023-04-02T09:00:25.929Z,100347.22
2023-04-02T09:04:28.227Z,100351.06
2023-04-02T09:08:32.141Z,100349.31
2023-04-02T09:12:34.270Z,100365.72
2023-04-02T09:16:46.498Z,100366.59
2023-04-02T09:20:49.363Z,100374.47
2023-04-02T09:25:02.488Z,100381.63
2023-04-02T09:29:13.382Z,100381.59
2023-04-02T09:33:14.977Z,100397.09
2023-04-02T09:37:19.571Z,100394.56
2023-04-02T09:41:22.452Z,100403.50
2023-04-02T09:45:24.658Z,100401.31
2023-04-02T09:49:30.073Z,100405.09
2023-04-02T09:53:36.062Z,100432.78
2023-04-02T09:57:38.671Z,100418.25
2023-04-02T10:01:45.695Z,100424.16
2023-04-02T10:05:48.651Z,100430.00
2023-04-02T10:10:01.224Z,100434.78
2023-04-02T10:14:15.119Z,100444.06
2023-04-02T10:18:24.203Z,100450.84
2023-04-02T10:22:28.420Z,100450.97
2023-04-02T10:26:42.081Z,100454.56
2023-04-02T10:31:03.309Z,100453.69
2023-04-02T10:35:11.541Z,100460.75
2023-04-02T10:39:39.204Z,100467.91
2023-04-02T10:43:53.707Z,100473.31
2023-04-02T10:48:10.620Z,100477.16
2023-04-02T10:52:26.676Z,100481.28
2023-04-02T10:56:35.114Z,100481.63
2023-04-02T11:00:44.923Z,100495.09
2023-04-02T11:04:47.024Z,100507.16
2023-04-02T11:08:52.126Z,100516.94
2023-04-02T11:13:04.861Z,100527.94
2023-04-02T11:17:06.454Z,100530.63
2023-04-02T11:21:51.078Z,100547.44
2023-04-02T11:26:35.207Z,100554.72
2023-04-02T11:30:36.874Z,100557.38
2023-04-02T11:34:41.465Z,100566.84
2023-04-02T11:38:46.407Z,100575.38
2023-04-02T11:42:51.549Z,100580.06
2023-04-02T11:47:13.050Z,100591.09
2023-04-02T11:51:21.306Z,100595.38
2023-04-02T11:55:30.613Z,100599.50
2023-04-02T11:59:35.956Z,100605.28
2023-04-02T12:03:46.719Z,100616.78
2023-04-02T12:08:05.764Z,100604.00
2023-04-02T12:12:26.284Z,100620.16
2023-04-02T12:16:32.920Z,100621.78
2023-04-02T12:20:35.153Z,100626.63
2023-04-02T12:24:36.978Z,100640.31
2023-04-02T12:28:38.573Z,100634.19
2023-04-02T12:32:40.731Z,100641.69
2023-04-02T12:37:14.227Z,100648.34
2023-04-02T12:41:27.171Z,100663.06
2023-04-02T12:45:33.239Z,100667.03
2023-04-02T12:49:38.729Z,100671.38
2023-04-02T12:53:41.805Z,100665.56
2023-04-02T12:57:45.949Z,100680.94
2023-04-02T13:01:59.165Z,100684.28
2023-04-02T13:06:00.807Z,100686.59
2023-04-02T13:10:26.302Z,100689.44
2023-04-02T13:14:28.221Z,100689.88
2023-04-02T13:18:31.811Z,100693.94
2023-04-02T13:22:33.384Z,100701.25
2023-04-02T13:26:34.925Z,100708.59
2023-04-02T13:30:36.975Z,100713.81
2023-04-02T13:34:38.775Z,100718.16
2023-04-02T13:38:40.512Z,100730.59
2023-04-02T13:42:43.123Z,100732.41
2023-04-02T13:46:44.658Z,100735.06
2023-04-02T13:50:46.778Z,100738.75
2023-04-02T13:54:56.064Z,100750.53
2023-04-02T13:58:57.640Z,100751.38
2023-04-02T14:03:04.392Z,100768.19
2023-04-02T14:07:50.112Z,100762.00
2023-04-02T14:12:03.400Z,100777.28
2023-04-02T14:16:35.048Z,100787.41
2023-04-02T14:20:39.667Z,100789.97
2023-04-02T14:24:50.496Z,100798.69
2023-04-02T14:29:05.301Z,100809.31
2023-04-02T14:33:24.352Z,100810.47
2023-04-02T14:37:29.747Z,100826.69
2023-04-02T14:41:55.872Z,100826.06
2023-04-02T14:46:05.845Z,100829.06
2023-04-02T14:50:13.415Z,100832.91
2023-04-02T14:54:29.703Z,100837.81
2023-04-02T14:58:35.458Z,100845.69
2023-04-02T15:02:36.995Z,100850.19
2023-04-02T15:06:44.357Z,100864.25
2023-04-02T15:10:56.087Z,100870.38
2023-04-02T15:15:41.318Z,100885.44
2023-04-02T15:19:42.859Z,100887.44
2023-04-02T15:24:12.233Z,100902.03
2023-04-02T15:28:38.176Z,100901.16
2023-04-02T15:32:42.096Z,100912.09
2023-04-02T15:37:02.841Z,100908.81
2023-04-02T15:41:23.439Z,100913.50
2023-04-02T15:45:29.768Z,100914.22
2023-04-02T15:49:42.729Z,100921.22
2023-04-02T15:53:51.868Z,100934.59
2023-04-02T15:58:15.768Z,100935.09
2023-04-02T16:02:45.995Z,100945.81
2023-04-02T16:07:19.105Z,100956.88
2023-04-02T16:11:21.042Z,100965.88
2023-04-02T16:15:36.774Z,100971.34
2023-04-02T16:19:51.824Z,100977.22
2023-04-02T16:23:53.790Z,100981.53
2023-04-02T16:28:21.539Z,100984.16
2023-04-02T16:33:08.470Z,101003.56
2023-04-02T16:37:38.424Z,101018.75
2023-04-02T16:42:00.725Z,101018.59
2023-04-02T16:46:38.797Z,101031.03
2023-04-02T16:50:44.422Z,101041.88
2023-04-02T16:54:57.716Z,101048.22
2023-04-02T16:59:07.261Z,101065.88
2023-04-02T17:03:23.618Z,101061.78
2023-04-02T17:08:01.673Z,101066.94
2023-04-02T17:12:21.367Z,101075.97
2023-04-02T17:16:35.352Z,101075.25
2023-04-02T17:20:38.003Z,101097.94
2023-04-02T17:24:44.295Z,101097.78
2023-04-02T17:28:48.540Z,101113.72
2023-04-02T17:32:50.322Z,101120.44
2023-04-02T17:37:06.769Z,101121.56
2023-04-02T17:41:18.730Z,101132.06
2023-04-02T17:45:31.919Z,101147.88
2023-04-02T17:49:58.405Z,101160.41
2023-04-02T17:54:23.231Z,101165.84
2023-04-02T17:58:52.484Z,101172.59
2023-04-02T18:03:08.431Z,101186.53
2023-04-02T18:07:10.432Z,101185.09
2023-04-02T18:11:35.777Z,101209.06
2023-04-02T18:16:02.506Z,101214.16
2023-04-02T18:20:27.383Z,101234.50
2023-04-02T18:24:53.608Z,101245.31
2023-04-02T18:29:25.389Z,101247.97
2023-04-02T18:33:59.418Z,101267.31
2023-04-02T18:38:23.525Z,101269.16
2023-04-02T18:42:50.967Z,101279.38
2023-04-02T18:46:56.322Z,101289.69
2023-04-02T18:51:00.403Z,101304.47
2023-04-02T18:55:06.423Z,101312.22
2023-04-02T18:59:35.951Z,101327.44
2023-04-02T19:03:46.452Z,101339.06
2023-04-02T19:07:52.384Z,101349.34
2023-04-02T19:11:54.077Z,101358.00
2023-04-02T19:16:17.807Z,101359.84
2023-04-02T19:20:31.406Z,101373.19
2023-04-02T19:24:48.799Z,101387.69
2023-04-02T19:29:18.440Z,101398.53
2023-04-02T19:33:44.681Z,101404.03
2023-04-02T19:37:55.989Z,101416.28
2023-04-02T19:42:14.008Z,101414.53
2023-04-02T19:46:15.799Z,101416.78
2023-04-02T19:50:17.784Z,101432.53
2023-04-02T19:54:19.354Z,101441.66
2023-04-02T19:58:32.813Z,101447.88
2023-04-02T20:02:34.385Z,101444.25
2023-04-02T20:06:36.294Z,101459.66
2023-04-02T20:10:38.340Z,101464.66
2023-04-02T20:14:40.253Z,101473.78
2023-04-02T20:18:42.118Z,101479.47
2023-04-02T20:22:43.768Z,101468.41
2023-04-02T20:26:45.529Z,101489.56
2023-04-02T20:30:49.838Z,101491.16
2023-04-02T20:34:51.402Z,101498.72
2023-04-02T20:38:53.107Z,101506.16
2023-04-02T20:42:54.753Z,101516.25
2023-04-02T20:46:56.442Z,101512.81
2023-04-02T20:51:03.009Z,101523.22
2023-04-02T20:55:05.032Z,101524.22
2023-04-02T20:59:06.554Z,101541.19
2023-04-02T21:03:09.953Z,101537.94
2023-04-02T21:07:11.468Z,101543.72
2023-04-02T21:11:13.352Z,101545.47
2023-04-02T21:15:15.060Z,101548.53
2023-04-02T21:19:16.677Z,101562.34
2023-04-02T21:23:18.299Z,101562.47
2023-04-02T21:27:22.220Z,101558.44
2023-04-02T21:31:26.093Z,101558.63
2023-04-02T21:35:27.678Z,101568.53
2023-04-02T21:39:29.218Z,101563.59
2023-04-02T21:43:30.774Z,101563.16
2023-04-02T21:47:32.520Z,101558.06
2023-04-02T21:51:35.972Z,101565.22
2023-04-02T21:55:37.501Z,101565.84
2023-04-02T21:59:39.090Z,101577.50
2023-04-02T22:03:40.814Z,101580.13
2023-04-02T22:07:42.964Z,101574.34
2023-04-02T22:11:47.423Z,101570.81
2023-04-02T22:15:49.070Z,101573.97
2023-04-02T22:19:50.668Z,101574.34
2023-04-02T22:23:52.603Z,101583.56
2023-04-02T22:27:54.241Z,101581.69
2023-04-02T22:31:55.795Z,101585.81
2023-04-02T22:35:57.351Z,101586.78
2023-04-02T22:39:58.944Z,101591.50
2023-04-02T22:44:01.239Z,101604.50
2023-04-02T22:48:02.841Z,101598.38
2023-04-02T22:52:06.018Z,101603.38
2023-04-02T22:56:10.761Z,101599.28
2023-04-02T23:00:15.657Z,101602.66
2023-04-02T23:04:17.383Z,101602.25
2023-04-02T23:08:18.939Z,101609.72
2023-04-02T23:12:21.132Z,101594.66
2023-04-02T23:16:24.274Z,101590.91
2023-04-02T23:20:25.854Z,101587.22
2023-04-02T23:24:27.486Z,101580.28
2023-04-02T23:28:29.034Z,101587.19
2023-04-02T23:32:30.606Z,101604.13
2023-04-02T23:36:33.986Z,101597.53
2023-04-02T23:40:35.694Z,101591.31
2023-04-02T23:44:37.559Z,101598.44
2023-04-02T23:48:39.181Z,101596.53
2023-04-02T23:52:40.885Z,101586.13
2023-04-02T23:56:42.528Z,101586.69
